Time;durP1;ratioP1;P1;durP2;ratioP2;P2;SDS_P1;SDS_P2;PMS_P1;PMS_P2;Temp;Humidity;BMP_temperature;BMP_pressure;BME280_temperature;BME280_humidity;BME280_pressure;Samples;Min_cycle;Max_cycle;Signal;HPM_P1;HPM_P2
2023/06/23 00:01:29;;;;;;;94.30;40.50;;;;;;;;;;5043877;28;20028;-68
2023/06/23 00:03:54;;;;;;;98.93;41.10;;;;;;;;;;5047024;28;20053;-69
2023/06/23 00:06:20;;;;;;;95.18;42.20;;;;;;;;;;5049056;28;20049;-69
2023/06/23 00:08:47;;;;;;;104.93;41.25;;;;;;;;;;5056964;28;20179;-69
2023/06/23 00:11:13;;;;;;;92.20;38.58;;;;;;;;;;5045316;28;20037;-69
2023/06/23 00:13:38;;;;;;;95.68;38.97;;;;;;;;;;5047910;28;20498;-69
2023/06/23 00:16:05;;;;;;;100.05;40.58;;;;;;;;;;5047140;28;20020;-69
2023/06/23 00:18:33;;;;;;;97.10;40.55;;;;;;;;;;5047420;28;20124;-69
2023/06/23 00:20:59;;;;;;;103.43;41.15;;;;;;;;;;5045359;28;20041;-69
2023/06/23 00:23:24;;;;;;;97.10;38.22;;;;;;;;;;5046451;28;20041;-69
2023/06/23 00:25:49;;;;;;;100.80;39.80;;;;;;;;;;5045281;28;20063;-69
2023/06/23 00:28:15;;;;;;;98.25;39.63;;;;;;;;;;5046464;28;20530;-69
2023/06/23 00:30:40;;;;;;;103.80;41.20;;;;;;;;;;5046952;28;20040;-69
2023/06/23 00:33:05;;;;;;;105.70;41.72;;;;;;;;;;5046831;28;20063;-69
2023/06/23 00:35:30;;;;;;;96.55;39.80;;;;;;;;;;5046132;28;20044;-69
2023/06/23 00:37:56;;;;;;;98.93;40.75;;;;;;;;;;5045065;28;20044;-69
2023/06/23 00:40:24;;;;;;;91.97;39.90;;;;;;;;;;5045962;28;20750;-69
2023/06/23 00:42:53;;;;;;;93.43;38.95;;;;;;;;;;5046878;28;20094;-69
2023/06/23 00:45:20;;;;;;;103.90;40.35;;;;;;;;;;5046239;28;20029;-69
2023/06/23 00:47:45;;;;;;;95.00;39.10;;;;;;;;;;5044623;28;20037;-69
2023/06/23 00:50:15;;;;;;;106.95;39.38;;;;;;;;;;5045959;28;20041;-69
2023/06/23 00:52:52;;;;;;;88.45;39.08;;;;;;;;;;5045255;28;20043;-69
2023/06/23 00:55:22;;;;;;;93.90;38.03;;;;;;;;;;5045735;28;20375;-69
2023/06/23 00:57:49;;;;;;;89.75;37.22;;;;;;;;;;5040489;28;20079;-69
2023/06/23 01:00:18;;;;;;;86.68;38.38;;;;;;;;;;5045672;28;20045;-69
2023/06/23 01:02:50;;;;;;;83.53;36.85;;;;;;;;;;5046034;28;20134;-69
2023/06/23 01:05:18;;;;;;;84.97;36.80;;;;;;;;;;5044111;28;20048;-69
2023/06/23 01:08:08;;;;;;;92.32;38.28;;;;;;;;;;5043066;28;20036;-69
2023/06/23 01:10:58;;;;;;;88.63;36.40;;;;;;;;;;5045951;28;20536;-69
2023/06/23 01:13:38;;;;;;;82.90;36.00;;;;;;;;;;5035032;28;20560;-69
2023/06/23 01:16:30;;;;;;;76.80;34.10;;;;;;;;;;5045773;28;20025;-69
2023/06/23 01:19:09;;;;;;;77.38;34.40;;;;;;;;;;5046526;28;20096;-69
2023/06/23 01:22:07;;;;;;;83.72;34.90;;;;;;;;;;5045866;28;20053;-69
2023/06/23 01:24:52;;;;;;;78.40;35.20;;;;;;;;;;5052338;28;20044;-69
2023/06/23 01:27:24;;;;;;;78.88;35.38;;;;;;;;;;5044978;28;20041;-69
2023/06/23 01:29:53;;;;;;;76.68;33.22;;;;;;;;;;5049560;28;20040;-69
2023/06/23 01:32:22;;;;;;;75.20;33.95;;;;;;;;;;5055908;28;20060;-69
2023/06/23 01:34:52;;;;;;;75.65;33.53;;;;;;;;;;5051152;28;20061;-69
2023/06/23 01:37:23;;;;;;;76.03;34.03;;;;;;;;;;5045446;28;20029;-69
2023/06/23 01:39:53;;;;;;;72.63;33.53;;;;;;;;;;5044323;28;20498;-69
2023/06/23 01:42:22;;;;;;;76.38;34.15;;;;;;;;;;5043577;28;20048;-69
2023/06/23 01:44:51;;;;;;;74.57;34.08;;;;;;;;;;5044523;28;20037;-69
2023/06/23 01:47:19;;;;;;;82.95;37.08;;;;;;;;;;5045220;28;20037;-69
2023/06/23 01:49:46;;;;;;;75.28;34.97;;;;;;;;;;5045313;28;20025;-68
2023/06/23 01:52:13;;;;;;;76.60;35.58;;;;;;;;;;5044707;28;20502;-69
2023/06/23 01:54:40;;;;;;;73.65;34.75;;;;;;;;;;5045352;28;20105;-69
2023/06/23 01:57:07;;;;;;;76.03;35.67;;;;;;;;;;5032378;28;20764;-69
2023/06/23 01:59:33;;;;;;;76.30;34.60;;;;;;;;;;5049745;28;20045;-69
2023/06/23 02:02:01;;;;;;;77.35;34.83;;;;;;;;;;5044749;28;20033;-69
2023/06/23 02:04:29;;;;;;;74.88;34.17;;;;;;;;;;5043027;28;20045;-69
2023/06/23 02:06:55;;;;;;;84.85;34.90;;;;;;;;;;5044835;28;20025;-69
2023/06/23 02:09:32;;;;;;;72.18;33.80;;;;;;;;;;5044184;28;20032;-69
2023/06/23 02:11:59;;;;;;;76.25;33.97;;;;;;;;;;5044231;28;20049;-69
2023/06/23 02:14:27;;;;;;;79.30;33.28;;;;;;;;;;5044938;28;20033;-69
2023/06/23 02:16:53;;;;;;;73.88;34.80;;;;;;;;;;5044583;28;20029;-69
2023/06/23 02:19:21;;;;;;;77.85;34.38;;;;;;;;;;5044485;28;20028;-69
2023/06/23 02:21:48;;;;;;;76.63;34.35;;;;;;;;;;5045225;28;20530;-69
2023/06/23 02:24:14;;;;;;;70.55;32.25;;;;;;;;;;5044251;28;20044;-69
2023/06/23 02:26:41;;;;;;;69.43;32.38;;;;;;;;;;5044482;28;20425;-69
2023/06/23 02:29:07;;;;;;;64.40;31.13;;;;;;;;;;5044504;28;20167;-69
2023/06/23 02:31:36;;;;;;;82.13;35.42;;;;;;;;;;5044103;28;20032;-69
2023/06/23 02:34:02;;;;;;;75.88;34.63;;;;;;;;;;5043041;28;20025;-69
2023/06/23 02:36:47;;;;;;;67.13;31.83;;;;;;;;;;5044207;28;20261;-69
2023/06/23 02:39:17;;;;;;;71.90;33.05;;;;;;;;;;5031584;28;20044;-69
2023/06/23 02:41:45;;;;;;;72.95;33.25;;;;;;;;;;5044303;28;20460;-69
2023/06/23 02:44:14;;;;;;;76.95;35.03;;;;;;;;;;5044265;28;20059;-69
2023/06/23 02:46:43;;;;;;;77.72;32.67;;;;;;;;;;5044242;28;20036;-69
2023/06/23 02:49:14;;;;;;;70.05;32.83;;;;;;;;;;5042610;28;20406;-69
2023/06/23 02:51:42;;;;;;;60.42;29.63;;;;;;;;;;5044905;28;20031;-69
2023/06/23 02:54:12;;;;;;;62.28;27.98;;;;;;;;;;5078861;28;20051;-68
2023/06/23 02:56:41;;;;;;;63.55;30.20;;;;;;;;;;5053021;28;20029;-69
2023/06/23 02:59:08;;;;;;;62.10;29.77;;;;;;;;;;5052728;28;20028;-69
2023/06/23 03:01:38;;;;;;;65.63;30.83;;;;;;;;;;5046124;28;20410;-69
2023/06/23 03:04:04;;;;;;;71.40;33.47;;;;;;;;;;5044271;28;20053;-69
2023/06/23 03:06:34;;;;;;;69.13;32.60;;;;;;;;;;5044516;28;20036;-69
2023/06/23 03:09:00;;;;;;;75.50;31.70;;;;;;;;;;5042382;28;20033;-69
2023/06/23 03:11:25;;;;;;;77.47;35.00;;;;;;;;;;5037091;28;20036;-69
2023/06/23 03:13:50;;;;;;;97.88;35.92;;;;;;;;;;5042109;28;20049;-69
2023/06/23 03:16:32;;;;;;;108.53;38.15;;;;;;;;;;5043922;28;20021;-69
2023/06/23 03:19:17;;;;;;;122.65;34.55;;;;;;;;;;5036529;28;20139;-69
2023/06/23 03:21:48;;;;;;;204.43;34.72;;;;;;;;;;5047076;28;20033;-68
2023/06/23 03:24:14;;;;;;;149.55;35.03;;;;;;;;;;5043516;28;20041;-69
2023/06/23 03:26:44;;;;;;;98.07;35.38;;;;;;;;;;5042446;28;20136;-69
2023/06/23 03:29:11;;;;;;;90.30;38.17;;;;;;;;;;5043789;28;20049;-69
2023/06/23 03:31:40;;;;;;;96.20;38.63;;;;;;;;;;5042344;28;20037;-69
2023/06/23 03:34:06;;;;;;;96.20;39.50;;;;;;;;;;5043558;28;20032;-69
2023/06/23 03:36:34;;;;;;;100.10;36.97;;;;;;;;;;5042913;28;20031;-69
2023/06/23 03:39:04;;;;;;;108.45;39.35;;;;;;;;;;5043609;28;20521;-69
2023/06/23 03:41:31;;;;;;;123.50;39.85;;;;;;;;;;5043324;28;20047;-69
2023/06/23 03:44:00;;;;;;;94.72;37.35;;;;;;;;;;5042806;28;20572;-69
2023/06/23 03:46:40;;;;;;;96.85;37.92;;;;;;;;;;5030367;28;20059;-69
2023/06/23 03:49:08;;;;;;;94.43;37.90;;;;;;;;;;5047787;28;20056;-69
2023/06/23 03:51:36;;;;;;;85.00;37.00;;;;;;;;;;5047560;28;20477;-69
2023/06/23 03:54:03;;;;;;;90.70;37.67;;;;;;;;;;5047295;28;20085;-69
2023/06/23 03:56:33;;;;;;;91.57;37.72;;;;;;;;;;5047336;28;20033;-69
2023/06/23 03:58:59;;;;;;;86.55;38.15;;;;;;;;;;5046006;28;20063;-69
2023/06/23 04:01:28;;;;;;;87.90;36.45;;;;;;;;;;5046883;28;20029;-69
2023/06/23 04:03:55;;;;;;;84.55;37.88;;;;;;;;;;5047569;28;20065;-69
2023/06/23 04:06:24;;;;;;;87.40;36.97;;;;;;;;;;5047333;28;20041;-69
2023/06/23 04:08:53;;;;;;;90.95;36.80;;;;;;;;;;5046886;28;20466;-69
2023/06/23 04:11:20;;;;;;;86.93;36.33;;;;;;;;;;5045602;28;20123;-69
2023/06/23 04:13:46;;;;;;;81.47;37.45;;;;;;;;;;5046066;28;20116;-69
2023/06/23 04:16:14;;;;;;;81.68;35.30;;;;;;;;;;5045965;28;20503;-69
2023/06/23 04:18:41;;;;;;;79.03;36.92;;;;;;;;;;5048906;28;20029;-69
2023/06/23 04:21:08;;;;;;;79.32;34.30;;;;;;;;;;5052476;28;20049;-69
2023/06/23 04:23:34;;;;;;;76.60;35.33;;;;;;;;;;5058145;28;20068;-69
2023/06/23 04:26:01;;;;;;;77.82;34.78;;;;;;;;;;5047184;28;20041;-69
2023/06/23 04:28:28;;;;;;;84.93;36.35;;;;;;;;;;5044835;28;20032;-69
2023/06/23 04:30:55;;;;;;;87.10;36.15;;;;;;;;;;5047140;28;20103;-69
2023/06/23 04:33:20;;;;;;;71.18;33.47;;;;;;;;;;5046706;28;20083;-69
2023/06/23 04:35:49;;;;;;;103.82;32.25;;;;;;;;;;5044625;28;20033;-69
2023/06/23 04:38:15;;;;;;;134.60;32.35;;;;;;;;;;5046422;28;20052;-69
2023/06/23 04:40:53;;;;;;;84.05;30.23;;;;;;;;;;5046497;28;20021;-69
2023/06/23 04:43:28;;;;;;;132.15;31.13;;;;;;;;;;5033803;28;20025;-69
2023/06/23 04:46:07;;;;;;;152.88;32.08;;;;;;;;;;5046583;28;20025;-69
2023/06/23 04:48:37;;;;;;;120.03;31.15;;;;;;;;;;5046781;28;20033;-69
2023/06/23 04:51:05;;;;;;;83.47;31.08;;;;;;;;;;5045995;28;20047;-69
2023/06/23 04:53:46;;;;;;;104.90;32.00;;;;;;;;;;5046551;28;20037;-69
2023/06/23 04:56:15;;;;;;;85.93;31.80;;;;;;;;;;5042744;28;20071;-69
2023/06/23 04:58:42;;;;;;;65.90;30.77;;;;;;;;;;5045901;28;20048;-69
2023/06/23 05:01:10;;;;;;;77.35;32.13;;;;;;;;;;5044490;28;20048;-69
2023/06/23 05:03:37;;;;;;;113.90;33.72;;;;;;;;;;5041694;28;20026;-69
2023/06/23 05:06:04;;;;;;;83.80;36.15;;;;;;;;;;5035939;28;20087;-69
2023/06/23 05:08:31;;;;;;;76.82;32.90;;;;;;;;;;5044618;28;20041;-69
2023/06/23 05:10:59;;;;;;;100.75;33.03;;;;;;;;;;5042347;28;20036;-69
2023/06/23 05:13:28;;;;;;;132.10;31.75;;;;;;;;;;5043750;28;20032;-69
2023/06/23 05:15:54;;;;;;;111.05;30.67;;;;;;;;;;5044726;28;20021;-69
2023/06/23 05:18:22;;;;;;;95.43;31.77;;;;;;;;;;5045698;28;20811;-69
2023/06/23 05:20:48;;;;;;;94.55;31.83;;;;;;;;;;5044486;28;20044;-69
2023/06/23 05:23:17;;;;;;;72.70;30.67;;;;;;;;;;5077899;28;20041;-69
2023/06/23 05:25:46;;;;;;;107.05;30.52;;;;;;;;;;5045512;28;20033;-69
2023/06/23 05:28:14;;;;;;;76.03;28.83;;;;;;;;;;5078002;28;20040;-69
2023/06/23 05:30:41;;;;;;;64.85;30.25;;;;;;;;;;5045620;28;20052;-69
2023/06/23 05:33:09;;;;;;;67.25;31.20;;;;;;;;;;5046104;28;20039;-69
2023/06/23 05:35:36;;;;;;;65.05;30.02;;;;;;;;;;5045133;28;20033;-69
2023/06/23 05:38:04;;;;;;;68.38;30.45;;;;;;;;;;5045802;28;20108;-69
2023/06/23 05:40:30;;;;;;;64.38;30.40;;;;;;;;;;5045938;28;20040;-69
2023/06/23 05:42:55;;;;;;;64.88;31.42;;;;;;;;;;5046829;28;20029;-69
2023/06/23 05:45:20;;;;;;;64.40;29.83;;;;;;;;;;5051239;28;20037;-67
2023/06/23 05:48:01;;;;;;;69.95;31.67;;;;;;;;;;5056924;28;20495;-69
2023/06/23 05:50:30;;;;;;;75.25;33.92;;;;;;;;;;5051379;28;20029;-69
2023/06/23 05:53:15;;;;;;;67.20;32.08;;;;;;;;;;5046240;28;20040;-69
2023/06/23 05:55:43;;;;;;;73.15;31.45;;;;;;;;;;5044307;28;20039;-69
2023/06/23 05:58:11;;;;;;;79.18;33.25;;;;;;;;;;5045073;28;20024;-69
2023/06/23 06:00:42;;;;;;;77.93;32.92;;;;;;;;;;5045531;28;20029;-69
2023/06/23 06:03:14;;;;;;;76.43;33.70;;;;;;;;;;5045304;28;20036;-69
2023/06/23 06:05:45;;;;;;;78.30;34.60;;;;;;;;;;5073631;28;20072;-69
2023/06/23 06:08:10;;;;;;;84.43;37.65;;;;;;;;;;5043336;28;20067;-69
2023/06/23 06:10:38;;;;;;;79.63;34.88;;;;;;;;;;5043454;28;20499;-69
2023/06/23 06:13:05;;;;;;;84.18;36.55;;;;;;;;;;5039542;28;20033;-69
2023/06/23 06:15:32;;;;;;;87.97;37.30;;;;;;;;;;5044992;28;20051;-69
2023/06/23 06:18:01;;;;;;;83.95;34.15;;;;;;;;;;5044523;28;20055;-69
2023/06/23 06:20:27;;;;;;;95.43;36.65;;;;;;;;;;5045142;28;20040;-69
2023/06/23 06:22:55;;;;;;;84.32;35.38;;;;;;;;;;5044593;28;20041;-69
2023/06/23 06:25:21;;;;;;;85.63;35.78;;;;;;;;;;5043702;28;20403;-69
2023/06/23 06:27:48;;;;;;;87.10;35.55;;;;;;;;;;5030948;28;20028;-68
2023/06/23 06:30:16;;;;;;;86.75;36.72;;;;;;;;;;5039166;28;20052;-69
2023/06/23 06:32:42;;;;;;;88.25;36.92;;;;;;;;;;5038892;28;20540;-68
2023/06/23 06:35:10;;;;;;;75.70;33.45;;;;;;;;;;5038745;28;20033;-69
2023/06/23 06:37:38;;;;;;;77.22;33.92;;;;;;;;;;5029970;28;20029;-69
2023/06/23 06:40:08;;;;;;;82.95;34.83;;;;;;;;;;5044060;28;20057;-68
2023/06/23 06:42:34;;;;;;;78.80;32.35;;;;;;;;;;5043175;28;20029;-69
2023/06/23 06:44:59;;;;;;;78.70;34.60;;;;;;;;;;5043654;28;20540;-69
2023/06/23 06:47:28;;;;;;;75.35;32.38;;;;;;;;;;5042788;28;20039;-69
2023/06/23 06:49:55;;;;;;;72.55;31.83;;;;;;;;;;5034857;28;20055;-68
2023/06/23 06:52:21;;;;;;;69.97;31.38;;;;;;;;;;5021571;28;20035;-69
2023/06/23 06:54:47;;;;;;;65.93;28.48;;;;;;;;;;5020814;28;20013;-69
2023/06/23 06:57:12;;;;;;;62.05;29.38;;;;;;;;;;5032697;28;20044;-69
2023/06/23 06:59:37;;;;;;;60.70;28.30;;;;;;;;;;5044058;28;20033;-69
2023/06/23 07:02:05;;;;;;;59.25;27.20;;;;;;;;;;5044057;28;20044;-69
2023/06/23 07:04:30;;;;;;;59.72;27.35;;;;;;;;;;5043339;28;20049;-69
2023/06/23 07:06:56;;;;;;;53.42;25.02;;;;;;;;;;5042208;28;20037;-69
2023/06/23 07:09:21;;;;;;;54.30;24.35;;;;;;;;;;5044028;28;20040;-69
2023/06/23 07:11:48;;;;;;;49.13;23.67;;;;;;;;;;5043948;28;20025;-69
2023/06/23 07:14:14;;;;;;;49.92;23.17;;;;;;;;;;5053964;28;20045;-69
2023/06/23 07:16:39;;;;;;;49.95;24.08;;;;;;;;;;5043516;28;20040;-69
2023/06/23 07:19:04;;;;;;;46.08;23.17;;;;;;;;;;5041277;28;20078;-69
2023/06/23 07:21:30;;;;;;;49.45;23.67;;;;;;;;;;5032620;28;20033;-69
2023/06/23 07:23:55;;;;;;;46.65;23.67;;;;;;;;;;5032667;28;20138;-69
2023/06/23 07:26:21;;;;;;;56.53;26.58;;;;;;;;;;5061780;28;20083;-69
2023/06/23 07:28:46;;;;;;;48.65;24.30;;;;;;;;;;5030399;28;20155;-69
2023/06/23 07:31:12;;;;;;;52.88;25.08;;;;;;;;;;5035044;28;20036;-69
2023/06/23 07:33:40;;;;;;;45.47;22.45;;;;;;;;;;5073640;28;20029;-69
2023/06/23 07:36:05;;;;;;;53.28;24.95;;;;;;;;;;5041680;28;20040;-68
2023/06/23 07:38:31;;;;;;;51.65;24.35;;;;;;;;;;5043229;28;20040;-68
2023/06/23 07:40:56;;;;;;;50.03;24.48;;;;;;;;;;5030847;28;20554;-69
2023/06/23 07:43:22;;;;;;;49.55;23.38;;;;;;;;;;5044803;28;20037;-69
2023/06/23 07:45:47;;;;;;;45.90;22.92;;;;;;;;;;5047474;28;20029;-69
2023/06/23 07:48:14;;;;;;;42.60;21.27;;;;;;;;;;5047248;28;20049;-69
2023/06/23 07:50:39;;;;;;;36.47;20.00;;;;;;;;;;5032870;28;20543;-69
2023/06/23 07:53:05;;;;;;;35.92;19.95;;;;;;;;;;5037610;28;20486;-68
2023/06/23 07:55:30;;;;;;;43.10;21.98;;;;;;;;;;5038246;28;20534;-69
2023/06/23 07:57:55;;;;;;;41.60;21.25;;;;;;;;;;5037134;28;20036;-69
2023/06/23 08:00:23;;;;;;;40.97;19.75;;;;;;;;;;5046380;28;20044;-69
2023/06/23 08:02:48;;;;;;;42.83;21.30;;;;;;;;;;5045967;28;20467;-69
2023/06/23 08:05:14;;;;;;;33.88;18.42;;;;;;;;;;5044253;28;20773;-69
2023/06/23 08:07:40;;;;;;;30.65;16.40;;;;;;;;;;5045311;28;20544;-69
2023/06/23 08:10:05;;;;;;;25.98;14.27;;;;;;;;;;5046643;28;20780;-69
2023/06/23 08:12:30;;;;;;;21.98;11.73;;;;;;;;;;5040184;28;20059;-69
2023/06/23 08:14:56;;;;;;;23.77;13.93;;;;;;;;;;5039026;28;20119;-69
2023/06/23 08:17:21;;;;;;;26.95;15.05;;;;;;;;;;5042133;28;20041;-69
2023/06/23 08:19:46;;;;;;;23.20;13.93;;;;;;;;;;5038900;28;20086;-69
2023/06/23 08:22:14;;;;;;;24.30;12.65;;;;;;;;;;5038003;28;20075;-69
2023/06/23 08:24:39;;;;;;;25.83;14.05;;;;;;;;;;5046943;28;20119;-69
2023/06/23 08:27:05;;;;;;;29.20;16.17;;;;;;;;;;5046539;28;20182;-69
2023/06/23 08:29:30;;;;;;;22.17;13.30;;;;;;;;;;5046439;28;20032;-69
2023/06/23 08:31:55;;;;;;;24.92;14.10;;;;;;;;;;5046840;28;20060;-69
2023/06/23 08:34:21;;;;;;;25.63;14.98;;;;;;;;;;5046584;28;20051;-69
2023/06/23 08:36:46;;;;;;;20.65;12.43;;;;;;;;;;5045962;28;20096;-68
2023/06/23 08:39:12;;;;;;;22.80;12.35;;;;;;;;;;5055193;28;20037;-68
2023/06/23 08:41:43;;;;;;;24.98;13.73;;;;;;;;;;5053973;28;20033;-68
2023/06/23 08:44:13;;;;;;;19.95;12.00;;;;;;;;;;5077710;28;20037;-68
2023/06/23 08:46:41;;;;;;;23.85;12.50;;;;;;;;;;5040242;28;20037;-68
2023/06/23 08:49:16;;;;;;;20.10;10.93;;;;;;;;;;5038773;28;20028;-68
2023/06/23 08:51:41;;;;;;;23.65;12.75;;;;;;;;;;5037018;28;20013;-69
2023/06/23 08:54:08;;;;;;;18.15;10.23;;;;;;;;;;5044341;28;20039;-69
2023/06/23 08:56:33;;;;;;;21.70;11.30;;;;;;;;;;5045800;28;21061;-68
2023/06/23 08:58:59;;;;;;;18.02;10.68;;;;;;;;;;5043061;28;20503;-68
2023/06/23 09:01:24;;;;;;;16.42;9.73;;;;;;;;;;5045791;28;20099;-68
2023/06/23 09:03:50;;;;;;;18.77;9.43;;;;;;;;;;5044562;28;20156;-68
2023/06/23 09:06:16;;;;;;;21.80;10.98;;;;;;;;;;5045592;28;20132;-68
2023/06/23 09:08:41;;;;;;;23.25;11.50;;;;;;;;;;5040588;28;20124;-68
2023/06/23 09:11:07;;;;;;;21.45;11.98;;;;;;;;;;5036258;28;20135;-68
2023/06/23 09:13:36;;;;;;;22.35;12.57;;;;;;;;;;5044516;28;20057;-68
2023/06/23 09:16:02;;;;;;;24.85;13.90;;;;;;;;;;5044840;28;20762;-68
2023/06/23 09:18:31;;;;;;;26.85;14.15;;;;;;;;;;5077940;28;20491;-68
2023/06/23 09:20:59;;;;;;;20.73;12.20;;;;;;;;;;5045416;28;20056;-68
2023/06/23 09:23:25;;;;;;;18.83;11.05;;;;;;;;;;5044125;28;20033;-68
2023/06/23 09:25:54;;;;;;;24.63;12.07;;;;;;;;;;5045267;28;20065;-68
2023/06/23 09:28:23;;;;;;;18.48;10.73;;;;;;;;;;5044954;28;20032;-68
2023/06/23 09:30:49;;;;;;;21.30;11.88;;;;;;;;;;5045219;28;20479;-68
2023/06/23 09:33:17;;;;;;;18.25;11.45;;;;;;;;;;5045941;28;20037;-68
2023/06/23 09:35:53;;;;;;;18.92;10.70;;;;;;;;;;5044656;28;20449;-69
2023/06/23 09:38:21;;;;;;;19.08;10.60;;;;;;;;;;5044895;28;20033;-68
2023/06/23 09:40:47;;;;;;;18.08;10.57;;;;;;;;;;5043716;28;20771;-68
2023/06/23 09:43:15;;;;;;;17.55;10.40;;;;;;;;;;5031727;28;20036;-68
2023/06/23 09:45:40;;;;;;;21.45;11.10;;;;;;;;;;5043708;28;20035;-68
2023/06/23 09:48:16;;;;;;;17.02;10.18;;;;;;;;;;5044425;28;20045;-68
2023/06/23 09:50:42;;;;;;;19.33;11.20;;;;;;;;;;5044395;28;20152;-68
2023/06/23 09:53:08;;;;;;;22.25;10.60;;;;;;;;;;5044724;28;20148;-68
2023/06/23 09:55:34;;;;;;;16.95;9.82;;;;;;;;;;5076436;28;20094;-68
2023/06/23 09:58:03;;;;;;;20.80;9.48;;;;;;;;;;5044820;28;20024;-68
2023/06/23 10:00:32;;;;;;;14.43;8.18;;;;;;;;;;5045645;28;20044;-68
2023/06/23 10:03:02;;;;;;;23.55;11.93;;;;;;;;;;5049052;28;20037;-68
2023/06/23 10:05:35;;;;;;;21.60;11.38;;;;;;;;;;5053564;28;20041;-68
2023/06/23 10:08:08;;;;;;;18.70;10.25;;;;;;;;;;5049246;28;20033;-68
2023/06/23 10:10:45;;;;;;;17.42;9.88;;;;;;;;;;5031290;28;20529;-68
2023/06/23 10:13:11;;;;;;;19.45;9.40;;;;;;;;;;5041024;28;20477;-68
2023/06/23 10:15:37;;;;;;;16.20;9.35;;;;;;;;;;5044091;28;20071;-68
2023/06/23 10:18:03;;;;;;;15.10;8.25;;;;;;;;;;5044345;28;20045;-69
2023/06/23 10:20:30;;;;;;;14.60;8.20;;;;;;;;;;5044158;28;20044;-68
2023/06/23 10:22:56;;;;;;;13.75;6.95;;;;;;;;;;5044196;28;20474;-68
2023/06/23 10:25:23;;;;;;;17.30;10.10;;;;;;;;;;5042537;28;20513;-68
2023/06/23 10:27:50;;;;;;;13.65;8.13;;;;;;;;;;5045126;28;20036;-68
2023/06/23 10:30:18;;;;;;;18.23;10.05;;;;;;;;;;5043416;28;20048;-68
2023/06/23 10:32:49;;;;;;;14.85;9.23;;;;;;;;;;5042514;28;20052;-68
2023/06/23 10:35:19;;;;;;;18.58;8.75;;;;;;;;;;5042492;28;20037;-68
2023/06/23 10:37:47;;;;;;;18.52;8.65;;;;;;;;;;5043291;28;20043;-68
2023/06/23 10:40:18;;;;;;;15.23;8.80;;;;;;;;;;5043167;28;20494;-68
2023/06/23 10:42:47;;;;;;;16.25;8.95;;;;;;;;;;5044373;28;20025;-68
2023/06/23 10:45:13;;;;;;;15.32;8.57;;;;;;;;;;5041476;28;20175;-68
2023/06/23 10:47:39;;;;;;;11.20;7.55;;;;;;;;;;5043263;28;20048;-69
2023/06/23 10:50:06;;;;;;;14.90;8.20;;;;;;;;;;5043494;28;20037;-69
2023/06/23 10:52:31;;;;;;;14.50;7.85;;;;;;;;;;5042970;28;20500;-68
2023/06/23 10:54:57;;;;;;;12.43;7.15;;;;;;;;;;5039765;28;20017;-68
2023/06/23 10:57:23;;;;;;;11.75;7.78;;;;;;;;;;5041163;28;20044;-68
2023/06/23 11:00:05;;;;;;;14.50;8.50;;;;;;;;;;5043514;28;20048;-68
2023/06/23 11:02:53;;;;;;;10.73;6.27;;;;;;;;;;5030218;28;20076;-69
2023/06/23 11:05:19;;;;;;;15.55;8.52;;;;;;;;;;5037796;28;20168;-69
2023/06/23 11:08:03;;;;;;;15.50;8.45;;;;;;;;;;5036555;28;20051;-69
2023/06/23 11:10:55;;;;;;;14.20;7.50;;;;;;;;;;5042939;28;20029;-69
2023/06/23 11:13:24;;;;;;;11.15;7.22;;;;;;;;;;5041204;28;20056;-69
2023/06/23 11:15:57;;;;;;;14.57;7.70;;;;;;;;;;5042132;28;20024;-69
2023/06/23 11:18:23;;;;;;;12.90;7.93;;;;;;;;;;5043709;28;20066;-69
2023/06/23 11:20:49;;;;;;;11.43;7.63;;;;;;;;;;5041251;28;20037;-69
2023/06/23 11:23:15;;;;;;;10.50;7.13;;;;;;;;;;5075988;28;20530;-69
2023/06/23 11:25:47;;;;;;;11.88;6.97;;;;;;;;;;5043463;28;20048;-69
2023/06/23 11:28:34;;;;;;;12.48;8.98;;;;;;;;;;5044962;28;20056;-68
2023/06/23 11:30:59;;;;;;;12.52;7.40;;;;;;;;;;5052652;28;20409;-69
2023/06/23 11:33:29;;;;;;;13.55;7.63;;;;;;;;;;5052569;28;20625;-69
2023/06/23 11:35:55;;;;;;;15.27;7.80;;;;;;;;;;5044715;28;20086;-69
2023/06/23 11:38:20;;;;;;;13.93;8.23;;;;;;;;;;5043800;28;20041;-69
2023/06/23 11:40:48;;;;;;;13.00;7.50;;;;;;;;;;5041427;28;20036;-69
2023/06/23 11:43:14;;;;;;;12.30;8.15;;;;;;;;;;5029545;28;20036;-69
2023/06/23 11:45:46;;;;;;;11.85;7.10;;;;;;;;;;5042507;28;20028;-69
2023/06/23 11:48:11;;;;;;;11.48;7.10;;;;;;;;;;5041976;28;20564;-69
2023/06/23 11:50:40;;;;;;;10.73;7.00;;;;;;;;;;5041701;28;20025;-69
2023/06/23 11:53:07;;;;;;;13.45;8.10;;;;;;;;;;5042868;28;20072;-69
2023/06/23 11:55:33;;;;;;;12.52;7.82;;;;;;;;;;5041247;28;20021;-69
2023/06/23 11:57:58;;;;;;;13.13;6.95;;;;;;;;;;5042882;28;20071;-69
2023/06/23 12:00:24;;;;;;;11.38;7.95;;;;;;;;;;5042070;28;20044;-69
2023/06/23 12:02:49;;;;;;;13.05;7.22;;;;;;;;;;5042583;28;20140;-69
2023/06/23 12:05:15;;;;;;;11.80;6.80;;;;;;;;;;5042336;28;20040;-69
2023/06/23 12:07:41;;;;;;;10.15;6.30;;;;;;;;;;5041868;28;20044;-69
2023/06/23 12:10:07;;;;;;;9.57;6.18;;;;;;;;;;5045933;28;20033;-69
2023/06/23 12:12:34;;;;;;;9.32;5.40;;;;;;;;;;5045959;28;20045;-69
2023/06/23 12:14:59;;;;;;;10.73;6.93;;;;;;;;;;5045897;28;20450;-69
2023/06/23 12:17:25;;;;;;;10.20;6.40;;;;;;;;;;5045579;28;20033;-69
2023/06/23 12:19:51;;;;;;;10.07;6.53;;;;;;;;;;5045742;28;20528;-69
2023/06/23 12:22:18;;;;;;;10.55;6.53;;;;;;;;;;5046173;28;20032;-69
2023/06/23 12:24:44;;;;;;;9.77;6.18;;;;;;;;;;5045892;28;20029;-69
2023/06/23 12:27:10;;;;;;;11.27;6.88;;;;;;;;;;5045744;28;20040;-69
2023/06/23 12:29:36;;;;;;;12.13;5.95;;;;;;;;;;5045506;28;20059;-69
2023/06/23 12:32:02;;;;;;;7.68;5.38;;;;;;;;;;5043425;28;20807;-69
2023/06/23 12:34:33;;;;;;;11.00;5.72;;;;;;;;;;5044179;28;20029;-69
2023/06/23 12:37:03;;;;;;;8.48;4.90;;;;;;;;;;5045849;28;20024;-69
2023/06/23 12:39:29;;;;;;;9.38;6.05;;;;;;;;;;5045713;28;20179;-69
2023/06/23 12:41:57;;;;;;;8.23;5.60;;;;;;;;;;5044385;28;20037;-69
2023/06/23 12:44:25;;;;;;;9.70;5.95;;;;;;;;;;5045543;28;20040;-69
2023/06/23 12:46:52;;;;;;;9.30;5.80;;;;;;;;;;5045456;28;20041;-69
2023/06/23 12:49:18;;;;;;;8.80;5.57;;;;;;;;;;5045636;28;20029;-69
2023/06/23 12:51:45;;;;;;;11.32;4.45;;;;;;;;;;5045460;28;20071;-69
2023/06/23 12:54:11;;;;;;;6.30;4.53;;;;;;;;;;5048566;28;20590;-69
2023/06/23 12:56:36;;;;;;;11.57;4.53;;;;;;;;;;5053682;28;20065;-69
2023/06/23 12:59:02;;;;;;;7.15;5.07;;;;;;;;;;5046436;28;20184;-69
2023/06/23 13:01:28;;;;;;;9.65;4.32;;;;;;;;;;5047776;28;20249;-69
2023/06/23 13:03:53;;;;;;;8.73;4.20;;;;;;;;;;5046249;28;20111;-69
2023/06/23 13:06:19;;;;;;;7.43;4.55;;;;;;;;;;5045560;28;20041;-69
2023/06/23 13:08:44;;;;;;;10.13;5.65;;;;;;;;;;5045715;28;20187;-69
2023/06/23 13:11:09;;;;;;;7.20;4.65;;;;;;;;;;5044787;28;20072;-69
2023/06/23 13:13:35;;;;;;;5.70;4.47;;;;;;;;;;5044942;28;20044;-69
2023/06/23 13:16:00;;;;;;;7.50;4.80;;;;;;;;;;5045311;28;20035;-69
2023/06/23 13:18:25;;;;;;;6.45;3.67;;;;;;;;;;5044484;28;20037;-69
2023/06/23 13:20:51;;;;;;;5.13;3.28;;;;;;;;;;5044061;28;20036;-69
2023/06/23 13:23:16;;;;;;;6.75;3.35;;;;;;;;;;5045729;28;20037;-69
2023/06/23 13:25:42;;;;;;;7.47;3.97;;;;;;;;;;5044988;28;20041;-69
2023/06/23 13:28:07;;;;;;;7.50;3.17;;;;;;;;;;5040691;28;20024;-69
2023/06/23 13:30:32;;;;;;;5.07;3.70;;;;;;;;;;5039628;28;20078;-69
2023/06/23 13:32:58;;;;;;;6.68;3.80;;;;;;;;;;5044980;28;20033;-69
2023/06/23 13:35:23;;;;;;;4.63;3.47;;;;;;;;;;5043962;28;20051;-69
2023/06/23 13:37:48;;;;;;;4.45;3.78;;;;;;;;;;5043853;28;20449;-69
2023/06/23 13:40:14;;;;;;;3.25;2.80;;;;;;;;;;5044770;28;20032;-69
2023/06/23 13:42:40;;;;;;;5.60;3.28;;;;;;;;;;5044997;28;20651;-69
2023/06/23 13:45:07;;;;;;;5.18;3.30;;;;;;;;;;5044057;28;20128;-69
2023/06/23 13:47:32;;;;;;;3.80;3.00;;;;;;;;;;5043832;28;20624;-69
2023/06/23 13:49:58;;;;;;;6.68;3.75;;;;;;;;;;5042682;28;20079;-69
2023/06/23 13:52:23;;;;;;;5.00;3.80;;;;;;;;;;5032427;28;20975;-69
2023/06/23 13:54:49;;;;;;;4.85;3.80;;;;;;;;;;5036691;28;20666;-70
2023/06/23 13:57:14;;;;;;;6.30;3.63;;;;;;;;;;5042299;28;20047;-69
2023/06/23 13:59:41;;;;;;;5.97;3.60;;;;;;;;;;5042337;28;20028;-69
2023/06/23 14:02:06;;;;;;;7.38;3.72;;;;;;;;;;5042706;28;20037;-69
2023/06/23 14:04:32;;;;;;;7.72;3.55;;;;;;;;;;5043312;28;20477;-69
2023/06/23 14:06:57;;;;;;;5.93;3.80;;;;;;;;;;5043522;28;20067;-69
2023/06/23 14:09:22;;;;;;;5.40;3.72;;;;;;;;;;5076189;28;20047;-69
2023/06/23 14:11:48;;;;;;;8.68;4.00;;;;;;;;;;5036197;28;20037;-69
2023/06/23 14:14:13;;;;;;;5.78;3.85;;;;;;;;;;5043702;28;20037;-69
2023/06/23 14:16:39;;;;;;;7.95;3.50;;;;;;;;;;5043978;28;20037;-69
2023/06/23 14:19:05;;;;;;;7.78;4.03;;;;;;;;;;5042181;28;20052;-69
2023/06/23 14:21:30;;;;;;;5.63;3.92;;;;;;;;;;5042870;28;20410;-68
2023/06/23 14:23:56;;;;;;;4.53;3.60;;;;;;;;;;5042073;28;20029;-69
2023/06/23 14:26:21;;;;;;;4.85;3.90;;;;;;;;;;5041211;28;20080;-69